Alice, Texas
Current Conditions -  °F | °C
As of 7:53 PM on Sunday 21 Dec 2014 (Local Time) from KALI Reporting Station
Overcast Overcast  
Wind Chill: 60°   Ceiling: 1100
Heat Index: 60°   Visibility: 8mi
Dew Point: 56°   Wind: 6mph
Humidity: 86%   Direction: 130°SE
Pressure: 29.91"   Gusts: NA
Location:  27.75°N, 98.06°W
Report Text: KALI 220153Z AUTO 13005KT 8SM OVC011 16/13 A2991 RMK AO2 SLP129 T01560133
Loading
Personal Weather Stations






























Interactive Weather Map New forecast layout! Learn more

10-Day Weather Forecast

Advertisements
Track Severe Weather on mobile